LPHR/HOR METAR and TAF weather

Enter ICAO airport designator
Station Type Date Time Source
LPHR METAR 2021/02/24 21:00 UTC NOAA

LPHR 242100Z 32005KT 9999 FEW030 SCT050 11/05 Q1034


Station Type Date Time Source
LPHR Decoded METAR 2021/02/24 21:00 UTC NOAA

Horta / Castelo Branco Acores , Portugal (LPHR) 38-31N 028-43W 41M
Feb 24, 2021 - 04:00 PM EST / 2021.02.24 2100 UTC
Wind: from the NW (320 degrees) at 6 MPH (5 KT):0
Visibility: greater than 7 mile(s):0
Sky conditions: partly cloudy
Temperature: 51 F (11 C)
Dew Point: 41 F (5 C)
Relative Humidity: 66%
Pressure (altimeter): 30.53 in. Hg (1034 hPa)
ob: LPHR 242100Z 32005KT 9999 FEW030 SCT050 11/05 Q1034
cycle: 21

Station Type Date Time Source
LPHR TAF 2018/09/06 09:00 UTC NOAA

TAF LPHR 060800Z 0609/0618 12010KT 9999 SCT018 SCT040 PROB30
TEMPO 0609/0618 5000 SHRA BKN015 FEW018CB
BECMG 0610/0612 18010KT

Example: see airport list